sensor_id;sensor_type;location;lat;lon;timestamp;pressure;altitude;pressure_sealevel;temperature;humidity
42601;BME280;28229;48.856;9.088;2023-03-21T00:00:31;98192.69;;;9.18;83.34
42601;BME280;28229;48.856;9.088;2023-03-21T00:02:57;98183.81;;;9.19;83.52
42601;BME280;28229;48.856;9.088;2023-03-21T00:05:23;98186.25;;;9.13;83.54
42601;BME280;28229;48.856;9.088;2023-03-21T00:07:49;98190.50;;;9.08;83.71
42601;BME280;28229;48.856;9.088;2023-03-21T00:10:17;98182.63;;;9.08;84.08
42601;BME280;28229;48.856;9.088;2023-03-21T00:12:43;98189.06;;;9.05;84.73
42601;BME280;28229;48.856;9.088;2023-03-21T00:15:10;98189.69;;;9.07;84.38
42601;BME280;28229;48.856;9.088;2023-03-21T00:17:37;98188.66;;;9.15;84.00
42601;BME280;28229;48.856;9.088;2023-03-21T00:20:05;98177.78;;;9.11;84.28
42601;BME280;28229;48.856;9.088;2023-03-21T00:22:34;98179.19;;;9.07;84.85
42601;BME280;28229;48.856;9.088;2023-03-21T00:25:00;98179.38;;;9.06;84.70
42601;BME280;28229;48.856;9.088;2023-03-21T00:27:27;98175.31;;;9.03;84.80
42601;BME280;28229;48.856;9.088;2023-03-21T00:29:54;98180.38;;;8.98;84.93
42601;BME280;28229;48.856;9.088;2023-03-21T00:32:21;98169.28;;;8.96;84.80
42601;BME280;28229;48.856;9.088;2023-03-21T00:34:47;98169.88;;;8.91;85.42
42601;BME280;28229;48.856;9.088;2023-03-21T00:37:15;98160.00;;;8.93;85.57
42601;BME280;28229;48.856;9.088;2023-03-21T00:39:46;98161.19;;;8.91;85.52
42601;BME280;28229;48.856;9.088;2023-03-21T00:42:19;98158.78;;;8.96;85.42
42601;BME280;28229;48.856;9.088;2023-03-21T00:44:46;98151.72;;;8.90;85.80
42601;BME280;28229;48.856;9.088;2023-03-21T00:47:12;98151.72;;;8.90;85.60
42601;BME280;28229;48.856;9.088;2023-03-21T00:49:39;98147.47;;;8.89;85.49
42601;BME280;28229;48.856;9.088;2023-03-21T00:52:07;98144.66;;;8.90;85.74
42601;BME280;28229;48.856;9.088;2023-03-21T00:54:35;98137.38;;;8.92;85.99
42601;BME280;28229;48.856;9.088;2023-03-21T00:57:03;98135.16;;;8.89;86.56
42601;BME280;28229;48.856;9.088;2023-03-21T00:59:30;98138.19;;;8.86;86.88
42601;BME280;28229;48.856;9.088;2023-03-21T01:01:56;98136.56;;;8.85;86.52
42601;BME280;28229;48.856;9.088;2023-03-21T01:04:26;98141.22;;;8.83;86.81
42601;BME280;28229;48.856;9.088;2023-03-21T01:06:53;98140.19;;;8.77;86.55
42601;BME280;28229;48.856;9.088;2023-03-21T01:09:22;98133.31;;;8.76;86.62
42601;BME280;28229;48.856;9.088;2023-03-21T01:11:49;98138.56;;;8.76;86.83
42601;BME280;28229;48.856;9.088;2023-03-21T01:14:16;98131.72;;;8.75;87.27
42601;BME280;28229;48.856;9.088;2023-03-21T01:16:43;98136.97;;;8.82;86.85
42601;BME280;28229;48.856;9.088;2023-03-21T01:19:12;98133.53;;;8.82;86.90
42601;BME280;28229;48.856;9.088;2023-03-21T01:21:39;98127.69;;;8.86;86.82
42601;BME280;28229;48.856;9.088;2023-03-21T01:24:05;98129.69;;;8.91;86.83
42601;BME280;28229;48.856;9.088;2023-03-21T01:26:32;98126.69;;;8.81;86.99
42601;BME280;28229;48.856;9.088;2023-03-21T01:28:58;98125.66;;;8.82;87.30
42601;BME280;28229;48.856;9.088;2023-03-21T01:31:24;98118.81;;;8.81;87.25
42601;BME280;28229;48.856;9.088;2023-03-21T01:33:50;98122.84;;;8.76;87.43
42601;BME280;28229;48.856;9.088;2023-03-21T01:36:20;98123.25;;;8.80;87.23
42601;BME280;28229;48.856;9.088;2023-03-21T01:38:49;98123.44;;;8.79;86.30
42601;BME280;28229;48.856;9.088;2023-03-21T01:41:22;98123.44;;;8.85;84.94
42601;BME280;28229;48.856;9.088;2023-03-21T01:43:50;98119.84;;;8.86;84.91
42601;BME280;28229;48.856;9.088;2023-03-21T01:46:28;98124.06;;;8.81;85.74
42601;BME280;28229;48.856;9.088;2023-03-21T01:49:26;98118.81;;;8.81;86.71
42601;BME280;28229;48.856;9.088;2023-03-21T01:52:08;98114.78;;;8.78;86.60
42601;BME280;28229;48.856;9.088;2023-03-21T01:54:37;98112.16;;;8.78;86.94
42601;BME280;28229;48.856;9.088;2023-03-21T01:57:09;98117.59;;;8.76;87.12
42601;BME280;28229;48.856;9.088;2023-03-21T01:59:44;98110.75;;;8.75;87.10
42601;BME280;28229;48.856;9.088;2023-03-21T02:02:43;98109.53;;;8.78;87.17
42601;BME280;28229;48.856;9.088;2023-03-21T02:06:01;98109.13;;;8.74;87.44
42601;BME280;28229;48.856;9.088;2023-03-21T02:08:33;98107.31;;;8.68;87.07
42601;BME280;28229;48.856;9.088;2023-03-21T02:11:07;98105.09;;;8.65;86.76
42601;BME280;28229;48.856;9.088;2023-03-21T02:13:41;98099.03;;;8.65;86.48
42601;BME280;28229;48.856;9.088;2023-03-21T02:16:26;98100.63;;;8.66;86.66
42601;BME280;28229;48.856;9.088;2023-03-21T02:28:23;98090.13;;;8.46;88.30
42601;BME280;28229;48.856;9.088;2023-03-21T02:39:39;98085.28;;;8.43;88.15
42601;BME280;28229;48.856;9.088;2023-03-21T02:42:06;98084.09;;;8.45;87.86
42601;BME280;28229;48.856;9.088;2023-03-21T02:44:54;98085.88;;;8.45;87.89
42601;BME280;28229;48.856;9.088;2023-03-21T02:47:37;98078.66;;;8.47;88.34
42601;BME280;28229;48.856;9.088;2023-03-21T02:50:15;98082.88;;;8.48;88.73
42601;BME280;28229;48.856;9.088;2023-03-21T02:52:44;98078.41;;;8.42;89.43
42601;BME280;28229;48.856;9.088;2023-03-21T02:55:19;98084.88;;;8.46;89.34
42601;BME280;28229;48.856;9.088;2023-03-21T02:58:00;98077.81;;;8.46;89.68
42601;BME280;28229;48.856;9.088;2023-03-21T03:00:31;98072.94;;;8.36;89.86
42601;BME280;28229;48.856;9.088;2023-03-21T03:02:59;98082.63;;;8.29;89.52
42601;BME280;28229;48.856;9.088;2023-03-21T03:05:28;98077.75;;;8.26;89.32
42601;BME280;28229;48.856;9.088;2023-03-21T03:13:30;98073.13;;;8.28;89.36
42601;BME280;28229;48.856;9.088;2023-03-21T03:18:52;98071.09;;;8.30;89.93
42601;BME280;28229;48.856;9.088;2023-03-21T03:21:31;98072.72;;;8.31;90.23
42601;BME280;28229;48.856;9.088;2023-03-21T03:27:01;98067.09;;;8.28;91.22
42601;BME280;28229;48.856;9.088;2023-03-21T03:29:31;98067.28;;;8.26;91.43
42601;BME280;28229;48.856;9.088;2023-03-21T03:32:02;98074.91;;;8.21;91.58
42601;BME280;28229;48.856;9.088;2023-03-21T03:34:37;98074.31;;;8.19;91.51
42601;BME280;28229;48.856;9.088;2023-03-21T03:37:13;98066.06;;;8.22;91.48
42601;BME280;28229;48.856;9.088;2023-03-21T03:39:50;98062.63;;;8.22;91.07
42601;BME280;28229;48.856;9.088;2023-03-21T03:42:23;98068.47;;;8.17;91.40
42601;BME280;28229;48.856;9.088;2023-03-21T03:44:57;98060.00;;;8.15;90.87
42601;BME280;28229;48.856;9.088;2023-03-21T03:47:37;98074.69;;;8.16;91.03
42601;BME280;28229;48.856;9.088;2023-03-21T03:50:13;98065.25;;;8.15;90.91
42601;BME280;28229;48.856;9.088;2023-03-21T03:55:48;98055.75;;;8.14;91.19
42601;BME280;28229;48.856;9.088;2023-03-21T03:58:22;98061.00;;;8.14;90.74
42601;BME280;28229;48.856;9.088;2023-03-21T04:00:51;98058.75;;;8.11;90.65
42601;BME280;28229;48.856;9.088;2023-03-21T04:03:18;98050.50;;;8.14;90.32
42601;BME280;28229;48.856;9.088;2023-03-21T04:05:44;98058.97;;;8.16;89.78
42601;BME280;28229;48.856;9.088;2023-03-21T04:08:15;98052.16;;;8.15;90.04
42601;BME280;28229;48.856;9.088;2023-03-21T04:10:44;98051.31;;;8.08;89.94
42601;BME280;28229;48.856;9.088;2023-03-21T04:13:11;98060.56;;;8.04;90.04
42601;BME280;28229;48.856;9.088;2023-03-21T04:15:49;98049.69;;;8.07;90.13
42601;BME280;28229;48.856;9.088;2023-03-21T04:18:15;98060.19;;;8.07;90.30
42601;BME280;28229;48.856;9.088;2023-03-21T04:20:42;98056.16;;;8.04;91.02
42601;BME280;28229;48.856;9.088;2023-03-21T04:23:10;98054.53;;;8.03;91.36
42601;BME280;28229;48.856;9.088;2023-03-21T04:25:40;98053.50;;;7.97;91.40
42601;BME280;28229;48.856;9.088;2023-03-21T04:28:06;98050.88;;;7.97;91.50
42601;BME280;28229;48.856;9.088;2023-03-21T04:30:39;98057.16;;;8.03;90.70
42601;BME280;28229;48.856;9.088;2023-03-21T04:33:10;98055.09;;;7.98;90.25
42601;BME280;28229;48.856;9.088;2023-03-21T04:35:38;98055.72;;;7.94;90.16
42601;BME280;28229;48.856;9.088;2023-03-21T04:38:06;98042.81;;;7.92;90.01
42601;BME280;28229;48.856;9.088;2023-03-21T04:40:32;98040.75;;;7.88;89.72
42601;BME280;28229;48.856;9.088;2023-03-21T04:43:00;98041.75;;;7.80;90.16
42601;BME280;28229;48.856;9.088;2023-03-21T04:45:27;98044.75;;;7.77;90.14
42601;BME280;28229;48.856;9.088;2023-03-21T04:47:53;98039.91;;;7.67;90.19
42601;BME280;28229;48.856;9.088;2023-03-21T04:50:19;98041.50;;;7.61;90.58
42601;BME280;28229;48.856;9.088;2023-03-21T04:52:46;98040.28;;;7.64;90.28
42601;BME280;28229;48.856;9.088;2023-03-21T04:55:12;98043.28;;;7.61;89.88
42601;BME280;28229;48.856;9.088;2023-03-21T04:57:39;98039.41;;;7.50;90.01
42601;BME280;28229;48.856;9.088;2023-03-21T05:00:08;98035.44;;;7.54;89.71
42601;BME280;28229;48.856;9.088;2023-03-21T05:02:36;98037.81;;;7.49;89.72
42601;BME280;28229;48.856;9.088;2023-03-21T05:05:02;98032.59;;;7.49;89.95
42601;BME280;28229;48.856;9.088;2023-03-21T05:07:29;98038.44;;;7.51;89.99
42601;BME280;28229;48.856;9.088;2023-03-21T05:09:58;98043.25;;;7.48;90.56
42601;BME280;28229;48.856;9.088;2023-03-21T05:12:24;98048.66;;;7.46;89.93
42601;BME280;28229;48.856;9.088;2023-03-21T05:14:50;98044.84;;;7.42;89.83
42601;BME280;28229;48.856;9.088;2023-03-21T05:17:16;98046.25;;;7.44;89.41
42601;BME280;28229;48.856;9.088;2023-03-21T05:19:50;98049.84;;;7.37;89.57
42601;BME280;28229;48.856;9.088;2023-03-21T05:22:18;98052.44;;;7.37;89.42
42601;BME280;28229;48.856;9.088;2023-03-21T05:24:46;98044.97;;;7.34;88.99
42601;BME280;28229;48.856;9.088;2023-03-21T05:27:29;98046.94;;;7.25;89.64
42601;BME280;28229;48.856;9.088;2023-03-21T05:30:10;98049.13;;;7.21;89.55
42601;BME280;28229;48.856;9.088;2023-03-21T05:32:37;98047.78;;;7.26;89.08
42601;BME280;28229;48.856;9.088;2023-03-21T05:35:04;98046.34;;;7.23;88.98
42601;BME280;28229;48.856;9.088;2023-03-21T05:37:32;98044.75;;;7.29;88.87
42601;BME280;28229;48.856;9.088;2023-03-21T05:39:58;98053.22;;;7.31;88.90
42601;BME280;28229;48.856;9.088;2023-03-21T05:42:31;98047.78;;;7.26;89.00
42601;BME280;28229;48.856;9.088;2023-03-21T05:44:58;98050.94;;;7.21;89.66
42601;BME280;28229;48.856;9.088;2023-03-21T05:47:29;98052.00;;;7.27;89.51
42601;BME280;28229;48.856;9.088;2023-03-21T05:49:58;98054.41;;;7.28;89.61
42601;BME280;28229;48.856;9.088;2023-03-21T05:52:24;98056.75;;;7.16;90.25
42601;BME280;28229;48.856;9.088;2023-03-21T05:54:52;98055.38;;;7.20;90.12
42601;BME280;28229;48.856;9.088;2023-03-21T05:57:21;98057.41;;;7.18;90.26
42601;BME280;28229;48.856;9.088;2023-03-21T06:00:11;98052.16;;;7.18;90.56
42601;BME280;28229;48.856;9.088;2023-03-21T06:02:50;98061.84;;;7.24;90.55
42601;BME280;28229;48.856;9.088;2023-03-21T06:05:34;98063.06;;;7.29;90.63
42601;BME280;28229;48.856;9.088;2023-03-21T06:08:00;98059.88;;;7.33;90.55
42601;BME280;28229;48.856;9.088;2023-03-21T06:10:27;98063.06;;;7.29;90.56
42601;BME280;28229;48.856;9.088;2023-03-21T06:12:54;98065.91;;;7.34;90.25
42601;BME280;28229;48.856;9.088;2023-03-21T06:15:32;98068.53;;;7.34;89.72
42601;BME280;28229;48.856;9.088;2023-03-21T06:18:05;98059.56;;;7.50;93.04
42601;BME280;28229;48.856;9.088;2023-03-21T06:20:32;98057.59;;;7.58;90.46
42601;BME280;28229;48.856;9.088;2023-03-21T06:23:07;98057.13;;;7.48;87.47
42601;BME280;28229;48.856;9.088;2023-03-21T06:25:33;98064.94;;;7.41;87.51
42601;BME280;28229;48.856;9.088;2023-03-21T06:28:00;98057.88;;;7.35;87.59
42601;BME280;28229;48.856;9.088;2023-03-21T06:30:26;98065.50;;;7.30;87.95
42601;BME280;28229;48.856;9.088;2023-03-21T06:33:13;98056.84;;;7.30;87.73
42601;BME280;28229;48.856;9.088;2023-03-21T06:35:39;98051.94;;;7.20;87.61
42601;BME280;28229;48.856;9.088;2023-03-21T06:38:06;98053.16;;;7.17;87.22
42601;BME280;28229;48.856;9.088;2023-03-21T06:40:33;98052.16;;;7.18;86.36
42601;BME280;28229;48.856;9.088;2023-03-21T06:42:59;98050.16;;;7.20;86.28
42601;BME280;28229;48.856;9.088;2023-03-21T06:45:26;98045.91;;;7.19;86.11
42601;BME280;28229;48.856;9.088;2023-03-21T06:47:53;98046.53;;;7.21;86.34
42601;BME280;28229;48.856;9.088;2023-03-21T06:50:30;98055.03;;;7.30;85.70
42601;BME280;28229;48.856;9.088;2023-03-21T06:52:56;98044.97;;;7.34;85.55
42601;BME280;28229;48.856;9.088;2023-03-21T06:55:27;98053.91;;;7.46;85.10
42601;BME280;28229;48.856;9.088;2023-03-21T06:57:56;98050.72;;;7.57;84.69
42601;BME280;28229;48.856;9.088;2023-03-21T07:00:25;98052.41;;;7.72;84.15
42601;BME280;28229;48.856;9.088;2023-03-21T07:02:51;98048.84;;;7.86;83.36
42601;BME280;28229;48.856;9.088;2023-03-21T07:05:23;98049.25;;;7.96;82.72
42601;BME280;28229;48.856;9.088;2023-03-21T07:07:49;98041.63;;;8.08;81.98
42601;BME280;28229;48.856;9.088;2023-03-21T07:10:16;98047.91;;;8.20;81.55
42601;BME280;28229;48.856;9.088;2023-03-21T07:12:48;98044.09;;;8.30;80.31
42601;BME280;28229;48.856;9.088;2023-03-21T07:15:31;98033.63;;;8.36;80.79
42601;BME280;28229;48.856;9.088;2023-03-21T07:17:59;98039.31;;;8.53;80.76
42601;BME280;28229;48.856;9.088;2023-03-21T07:20:25;98042.13;;;8.65;80.05
42601;BME280;28229;48.856;9.088;2023-03-21T07:22:52;98047.78;;;8.75;80.83
42601;BME280;28229;48.856;9.088;2023-03-21T07:25:18;98050.78;;;8.92;81.07
42601;BME280;28229;48.856;9.088;2023-03-21T07:27:46;98045.75;;;9.11;80.06
42601;BME280;28229;48.856;9.088;2023-03-21T07:30:12;98049.31;;;9.30;79.89
42601;BME280;28229;48.856;9.088;2023-03-21T07:32:39;98048.06;;;9.39;77.63
42601;BME280;28229;48.856;9.088;2023-03-21T07:35:11;98045.22;;;9.47;77.40
42601;BME280;28229;48.856;9.088;2023-03-21T07:37:38;98043.19;;;9.56;77.57
42601;BME280;28229;48.856;9.088;2023-03-21T07:40:07;98046.13;;;9.73;77.85
42601;BME280;28229;48.856;9.088;2023-03-21T07:42:37;98045.88;;;9.88;77.12
42601;BME280;28229;48.856;9.088;2023-03-21T07:45:03;98049.47;;;10.00;76.18
42601;BME280;28229;48.856;9.088;2023-03-21T07:47:33;98048.78;;;10.12;74.62
42601;BME280;28229;48.856;9.088;2023-03-21T07:50:00;98051.38;;;10.18;75.00
42601;BME280;28229;48.856;9.088;2023-03-21T07:52:26;98047.25;;;10.36;74.17
42601;BME280;28229;48.856;9.088;2023-03-21T07:54:52;98046.44;;;10.35;70.67
42601;BME280;28229;48.856;9.088;2023-03-21T07:57:20;98040.38;;;10.28;69.60
42601;BME280;28229;48.856;9.088;2023-03-21T07:59:46;98048.44;;;10.40;69.27
42601;BME280;28229;48.856;9.088;2023-03-21T08:02:16;98047.03;;;10.37;68.43
42601;BME280;28229;48.856;9.088;2023-03-21T08:04:43;98045.59;;;10.41;68.39
42601;BME280;28229;48.856;9.088;2023-03-21T08:07:10;98047.75;;;10.51;68.84
42601;BME280;28229;48.856;9.088;2023-03-21T08:09:36;98047.50;;;10.59;69.42
42601;BME280;28229;48.856;9.088;2023-03-21T08:12:05;98053.84;;;10.77;68.85
42601;BME280;28229;48.856;9.088;2023-03-21T08:14:33;98041.13;;;10.92;68.43
42601;BME280;28229;48.856;9.088;2023-03-21T08:17:03;98041.41;;;11.09;67.98
42601;BME280;28229;48.856;9.088;2023-03-21T08:19:29;98040.03;;;11.25;65.92
42601;BME280;28229;48.856;9.088;2023-03-21T08:21:56;98043.53;;;11.37;65.48
42601;BME280;28229;48.856;9.088;2023-03-21T08:24:25;98044.53;;;11.55;64.69
42601;BME280;28229;48.856;9.088;2023-03-21T08:26:51;98025.38;;;11.66;64.36
42601;BME280;28229;48.856;9.088;2023-03-21T08:29:17;98038.94;;;11.81;64.19
42601;BME280;28229;48.856;9.088;2023-03-21T08:31:44;98041.81;;;11.98;61.91
42601;BME280;28229;48.856;9.088;2023-03-21T08:34:10;98038.13;;;11.99;60.53
42601;BME280;28229;48.856;9.088;2023-03-21T08:36:38;98035.41;;;12.06;59.22
42601;BME280;28229;48.856;9.088;2023-03-21T08:39:05;98036.47;;;12.17;58.85
42601;BME280;28229;48.856;9.088;2023-03-21T08:41:31;98026.56;;;12.31;56.34
42601;BME280;28229;48.856;9.088;2023-03-21T08:43:58;98024.53;;;12.56;55.50
42601;BME280;28229;48.856;9.088;2023-03-21T08:46:24;98022.03;;;12.85;54.01
42601;BME280;28229;48.856;9.088;2023-03-21T08:48:51;98010.31;;;12.93;51.80
42601;BME280;28229;48.856;9.088;2023-03-21T08:51:17;98016.41;;;13.05;52.36
42601;BME280;28229;48.856;9.088;2023-03-21T08:53:44;98016.38;;;13.17;51.63
42601;BME280;28229;48.856;9.088;2023-03-21T08:56:10;98017.16;;;13.29;51.25
42601;BME280;28229;48.856;9.088;2023-03-21T08:58:37;98010.38;;;13.45;53.15
42601;BME280;28229;48.856;9.088;2023-03-21T09:01:04;98017.97;;;13.54;52.53
42601;BME280;28229;48.856;9.088;2023-03-21T09:03:32;98016.13;;;13.83;51.09
42601;BME280;28229;48.856;9.088;2023-03-21T09:05:58;98009.50;;;13.97;50.51
42601;BME280;28229;48.856;9.088;2023-03-21T09:08:24;98012.03;;;14.04;50.65
42601;BME280;28229;48.856;9.088;2023-03-21T09:10:52;98003.84;;;14.05;50.60
42601;BME280;28229;48.856;9.088;2023-03-21T09:13:20;98002.59;;;14.25;49.85
42601;BME280;28229;48.856;9.088;2023-03-21T09:15:46;98004.38;;;14.36;48.54
42601;BME280;28229;48.856;9.088;2023-03-21T09:18:13;98008.22;;;14.45;47.95
42601;BME280;28229;48.856;9.088;2023-03-21T09:20:42;98009.22;;;14.56;48.33
42601;BME280;28229;48.856;9.088;2023-03-21T09:23:09;98008.25;;;14.79;47.78
42601;BME280;28229;48.856;9.088;2023-03-21T09:25:36;98004.22;;;14.94;46.33
42601;BME280;28229;48.856;9.088;2023-03-21T09:28:03;98011.56;;;14.87;46.34
42601;BME280;28229;48.856;9.088;2023-03-21T09:30:31;98007.53;;;14.84;46.00
42601;BME280;28229;48.856;9.088;2023-03-21T09:32:59;98005.19;;;15.04;45.74
42601;BME280;28229;48.856;9.088;2023-03-21T09:35:26;98006.13;;;15.15;45.13
42601;BME280;28229;48.856;9.088;2023-03-21T09:37:53;98011.53;;;15.26;41.92
42601;BME280;28229;48.856;9.088;2023-03-21T09:40:38;98004.78;;;15.35;41.51
42601;BME280;28229;48.856;9.088;2023-03-21T09:45:44;98017.38;;;15.72;41.15
42601;BME280;28229;48.856;9.088;2023-03-21T09:48:32;98009.94;;;15.69;40.63
42601;BME280;28229;48.856;9.088;2023-03-21T09:51:01;98008.75;;;15.59;41.46
42601;BME280;28229;48.856;9.088;2023-03-21T09:53:31;98011.31;;;15.49;41.97
42601;BME280;28229;48.856;9.088;2023-03-21T09:56:01;98001.81;;;15.53;40.86
42601;BME280;28229;48.856;9.088;2023-03-21T09:58:34;97999.75;;;15.60;41.00
42601;BME280;28229;48.856;9.088;2023-03-21T10:01:16;98000.88;;;15.87;41.29
42601;BME280;28229;48.856;9.088;2023-03-21T10:03:54;97990.44;;;16.07;40.49
42601;BME280;28229;48.856;9.088;2023-03-21T10:06:23;97983.81;;;16.37;39.62
42601;BME280;28229;48.856;9.088;2023-03-21T10:09:04;97987.16;;;16.54;40.61
42601;BME280;28229;48.856;9.088;2023-03-21T10:11:43;97982.22;;;16.73;39.20
42601;BME280;28229;48.856;9.088;2023-03-21T10:14:18;97985.00;;;16.89;38.44
42601;BME280;28229;48.856;9.088;2023-03-21T10:22:44;97978.28;;;17.29;39.02
42601;BME280;28229;48.856;9.088;2023-03-21T10:25:19;97981.53;;;17.41;37.69
42601;BME280;28229;48.856;9.088;2023-03-21T10:27:47;97973.88;;;17.55;37.65
42601;BME280;28229;48.856;9.088;2023-03-21T10:30:24;97969.88;;;17.63;37.68
42601;BME280;28229;48.856;9.088;2023-03-21T10:32:51;97972.13;;;17.86;37.40
42601;BME280;28229;48.856;9.088;2023-03-21T10:35:18;97974.81;;;17.92;38.06
42601;BME280;28229;48.856;9.088;2023-03-21T10:37:45;97970.28;;;17.92;36.41
42601;BME280;28229;48.856;9.088;2023-03-21T10:40:17;97960.41;;;17.98;36.77
42601;BME280;28229;48.856;9.088;2023-03-21T10:42:44;97959.81;;;17.80;36.74
42601;BME280;28229;48.856;9.088;2023-03-21T10:45:16;97958.78;;;17.81;37.43
42601;BME280;28229;48.856;9.088;2023-03-21T10:47:47;97960.34;;;17.72;38.21
42601;BME280;28229;48.856;9.088;2023-03-21T10:50:16;97962.47;;;17.75;37.45
42601;BME280;28229;48.856;9.088;2023-03-21T10:52:55;97960.09;;;17.79;38.56
42601;BME280;28229;48.856;9.088;2023-03-21T10:55:28;97959.88;;;17.91;38.49
42601;BME280;28229;48.856;9.088;2023-03-21T10:58:01;97963.09;;;18.03;38.54
42601;BME280;28229;48.856;9.088;2023-03-21T11:00:33;97966.00;;;18.01;38.25
42601;BME280;28229;48.856;9.088;2023-03-21T11:03:01;97960.16;;;17.99;39.16
42601;BME280;28229;48.856;9.088;2023-03-21T11:05:39;97956.72;;;18.04;38.99
42601;BME280;28229;48.856;9.088;2023-03-21T11:08:14;97953.25;;;18.19;37.68
42601;BME280;28229;48.856;9.088;2023-03-21T11:11:02;97953.00;;;18.25;36.75
42601;BME280;28229;48.856;9.088;2023-03-21T11:13:36;97940.22;;;18.27;37.94
42601;BME280;28229;48.856;9.088;2023-03-21T11:16:10;97939.38;;;18.32;37.91
42601;BME280;28229;48.856;9.088;2023-03-21T11:18:42;97948.47;;;18.31;37.94
42601;BME280;28229;48.856;9.088;2023-03-21T11:21:13;97947.13;;;18.29;38.29
42601;BME280;28229;48.856;9.088;2023-03-21T11:23:42;97943.13;;;18.11;37.86
42601;BME280;28229;48.856;9.088;2023-03-21T11:26:19;97949.78;;;17.98;39.15
42601;BME280;28229;48.856;9.088;2023-03-21T11:28:49;97945.78;;;17.90;38.62
42601;BME280;28229;48.856;9.088;2023-03-21T11:31:16;97946.00;;;17.83;38.00
42601;BME280;28229;48.856;9.088;2023-03-21T11:33:51;97937.72;;;17.69;37.85
42601;BME280;28229;48.856;9.088;2023-03-21T11:38:59;97941.22;;;17.70;37.72
42601;BME280;28229;48.856;9.088;2023-03-21T11:41:32;97943.03;;;17.54;38.62
42601;BME280;28229;48.856;9.088;2023-03-21T11:44:00;97932.00;;;17.25;39.12
42601;BME280;28229;48.856;9.088;2023-03-21T11:46:29;97933.66;;;17.31;39.12
42601;BME280;28229;48.856;9.088;2023-03-21T11:48:57;97931.78;;;17.31;39.71
42601;BME280;28229;48.856;9.088;2023-03-21T11:51:38;97929.13;;;17.31;39.17
42601;BME280;28229;48.856;9.088;2023-03-21T11:59:29;97905.84;;;16.96;39.30
42601;BME280;28229;48.856;9.088;2023-03-21T12:02:25;97898.94;;;16.95;39.84
42601;BME280;28229;48.856;9.088;2023-03-21T12:05:04;97909.56;;;16.95;40.38
42601;BME280;28229;48.856;9.088;2023-03-21T12:07:42;97901.34;;;17.02;40.62
42601;BME280;28229;48.856;9.088;2023-03-21T12:21:18;97882.38;;;16.78;40.79
42601;BME280;28229;48.856;9.088;2023-03-21T12:26:54;97880.66;;;16.56;42.65
42601;BME280;28229;48.856;9.088;2023-03-21T12:29:51;97879.13;;;16.65;41.04
42601;BME280;28229;48.856;9.088;2023-03-21T12:45:41;97856.88;;;16.34;44.59
42601;BME280;28229;48.856;9.088;2023-03-21T12:51:07;97853.59;;;16.64;44.03
42601;BME280;28229;48.856;9.088;2023-03-21T12:54:03;97851.78;;;16.75;43.70
42601;BME280;28229;48.856;9.088;2023-03-21T12:56:39;97852.72;;;17.01;43.50
42601;BME280;28229;48.856;9.088;2023-03-21T12:59:35;97841.63;;;17.30;43.27
42601;BME280;28229;48.856;9.088;2023-03-21T13:02:37;97841.41;;;17.42;42.12
42601;BME280;28229;48.856;9.088;2023-03-21T13:05:21;97842.72;;;17.44;41.25
42601;BME280;28229;48.856;9.088;2023-03-21T13:08:12;97841.94;;;17.64;42.32
42601;BME280;28229;48.856;9.088;2023-03-21T13:10:43;97846.47;;;17.74;41.42
42601;BME280;28229;48.856;9.088;2023-03-21T13:15:56;97838.75;;;17.42;41.26
42601;BME280;28229;48.856;9.088;2023-03-21T13:18:51;97831.50;;;17.22;42.50
42601;BME280;28229;48.856;9.088;2023-03-21T13:24:27;97840.56;;;17.21;41.61
42601;BME280;28229;48.856;9.088;2023-03-21T13:27:05;97832.84;;;17.19;42.90
42601;BME280;28229;48.856;9.088;2023-03-21T13:29:57;97827.22;;;17.10;42.82
42601;BME280;28229;48.856;9.088;2023-03-21T13:32:34;97830.44;;;17.18;42.42
42601;BME280;28229;48.856;9.088;2023-03-21T13:35:32;97825.38;;;17.16;42.57
42601;BME280;28229;48.856;9.088;2023-03-21T13:38:07;97826.72;;;17.13;42.51
42601;BME280;28229;48.856;9.088;2023-03-21T13:40:42;97822.47;;;17.18;42.70
42601;BME280;28229;48.856;9.088;2023-03-21T13:46:34;97823.81;;;17.36;41.43
42601;BME280;28229;48.856;9.088;2023-03-21T13:49:14;97814.00;;;17.31;41.94
42601;BME280;28229;48.856;9.088;2023-03-21T13:51:52;97812.91;;;17.22;42.67
42601;BME280;28229;48.856;9.088;2023-03-21T13:54:44;97803.84;;;17.12;43.45
42601;BME280;28229;48.856;9.088;2023-03-21T14:00:27;97793.22;;;17.12;43.41
42601;BME280;28229;48.856;9.088;2023-03-21T14:03:12;97789.44;;;16.88;44.23
42601;BME280;28229;48.856;9.088;2023-03-21T14:05:41;97791.78;;;16.79;44.83
42601;BME280;28229;48.856;9.088;2023-03-21T14:08:16;97784.59;;;16.80;45.53
42601;BME280;28229;48.856;9.088;2023-03-21T14:10:44;97783.81;;;16.79;44.68
42601;BME280;28229;48.856;9.088;2023-03-21T14:13:17;97776.03;;;16.57;45.21
42601;BME280;28229;48.856;9.088;2023-03-21T14:16:00;97780.28;;;16.58;45.26
42601;BME280;28229;48.856;9.088;2023-03-21T14:18:30;97780.81;;;16.60;44.62
42601;BME280;28229;48.856;9.088;2023-03-21T14:21:05;97778.69;;;16.62;45.14
42601;BME280;28229;48.856;9.088;2023-03-21T14:23:31;97786.09;;;16.50;45.22
42601;BME280;28229;48.856;9.088;2023-03-21T14:25:57;97777.59;;;16.48;45.31
42601;BME280;28229;48.856;9.088;2023-03-21T14:28:25;97784.81;;;16.63;45.33
42601;BME280;28229;48.856;9.088;2023-03-21T14:30:55;97783.00;;;16.79;45.34
42601;BME280;28229;48.856;9.088;2023-03-21T14:33:30;97782.72;;;16.75;44.93
42601;BME280;28229;48.856;9.088;2023-03-21T14:35:58;97788.91;;;16.86;44.95
42601;BME280;28229;48.856;9.088;2023-03-21T14:38:32;97780.38;;;16.84;44.55
42601;BME280;28229;48.856;9.088;2023-03-21T14:40:59;97782.22;;;16.78;45.18
42601;BME280;28229;48.856;9.088;2023-03-21T14:43:26;97780.09;;;16.80;44.72
42601;BME280;28229;48.856;9.088;2023-03-21T14:45:55;97772.94;;;16.86;44.86
42601;BME280;28229;48.856;9.088;2023-03-21T14:48:34;97779.38;;;16.90;45.95
42601;BME280;28229;48.856;9.088;2023-03-21T14:51:03;97775.56;;;16.81;44.91
42601;BME280;28229;48.856;9.088;2023-03-21T14:53:32;97773.44;;;16.72;45.55
42601;BME280;28229;48.856;9.088;2023-03-21T14:56:14;97776.53;;;16.49;47.51
42601;BME280;28229;48.856;9.088;2023-03-21T14:58:44;97781.47;;;16.30;48.30